createdAt,value
2023-03-29T00:03:33.568Z,0.51
2023-03-29T00:07:33.566Z,0.51
2023-03-29T00:11:33.487Z,0.51
2023-03-29T00:15:33.500Z,0.51
2023-03-29T00:19:33.567Z,0.51
2023-03-29T00:23:33.478Z,0.51
2023-03-29T00:27:33.482Z,0.51
2023-03-29T00:31:33.544Z,0.50
2023-03-29T00:35:33.618Z,0.52
2023-03-29T00:39:33.481Z,0.51
2023-03-29T00:43:33.491Z,0.52
2023-03-29T00:47:33.530Z,0.53
2023-03-29T00:51:33.507Z,0.51
2023-03-29T00:55:33.510Z,0.52
2023-03-29T00:59:33.503Z,0.51
2023-03-29T01:03:33.563Z,0.52
2023-03-29T01:07:33.506Z,0.51
2023-03-29T01:11:33.517Z,0.52
2023-03-29T01:15:33.554Z,0.53
2023-03-29T01:19:33.530Z,0.52
2023-03-29T01:23:33.531Z,0.51
2023-03-29T01:27:33.514Z,0.52
2023-03-29T01:31:33.592Z,0.52
2023-03-29T01:35:33.606Z,0.53
2023-03-29T01:39:33.572Z,0.51
2023-03-29T01:43:33.582Z,0.52
2023-03-29T01:47:33.632Z,0.53
2023-03-29T01:51:33.636Z,0.52
2023-03-29T01:55:33.679Z,0.51
2023-03-29T01:59:33.656Z,0.52
2023-03-29T02:03:33.810Z,0.52
2023-03-29T02:07:33.661Z,0.52
2023-03-29T02:11:33.707Z,0.52
2023-03-29T02:15:33.815Z,0.52
2023-03-29T02:19:33.727Z,0.52
2023-03-29T02:23:33.741Z,0.52
2023-03-29T02:27:33.772Z,0.52
2023-03-29T02:31:33.834Z,0.51
2023-03-29T02:35:33.832Z,0.52
2023-03-29T02:39:33.874Z,0.53
2023-03-29T02:43:33.888Z,0.52
2023-03-29T02:47:33.949Z,0.52
2023-03-29T02:51:33.967Z,0.54
2023-03-29T02:55:33.980Z,0.52
2023-03-29T02:59:34.020Z,0.52
2023-03-29T03:03:34.182Z,0.52
2023-03-29T03:07:34.094Z,0.52
2023-03-29T03:11:34.129Z,0.52
2023-03-29T03:15:34.226Z,0.52
2023-03-29T03:19:34.238Z,0.52
2023-03-29T03:23:34.295Z,0.53
2023-03-29T03:27:34.328Z,0.52
2023-03-29T03:31:34.457Z,0.53
2023-03-29T03:35:34.449Z,0.53
2023-03-29T03:39:35.152Z,0.52
2023-03-29T03:43:34.577Z,0.52
2023-03-29T03:47:34.649Z,0.52
2023-03-29T03:51:34.681Z,0.52
2023-03-29T03:55:34.751Z,0.53
2023-03-29T03:59:34.888Z,0.52
2023-03-29T04:03:35.025Z,0.51
2023-03-29T04:07:34.978Z,0.52
2023-03-29T04:11:35.036Z,0.52
2023-03-29T04:15:35.144Z,0.53
2023-03-29T04:19:35.188Z,0.52
2023-03-29T04:23:35.267Z,0.54
2023-03-29T04:27:35.352Z,0.53
2023-03-29T04:31:35.457Z,0.54
2023-03-29T04:35:35.549Z,0.52
2023-03-29T04:39:35.576Z,0.52
2023-03-29T04:43:36.826Z,0.53
2023-03-29T04:47:35.650Z,0.53
2023-03-29T04:51:35.584Z,0.52
2023-03-29T04:55:35.542Z,0.52
2023-03-29T04:59:35.501Z,0.52
2023-03-29T05:03:35.463Z,0.53
2023-03-29T05:07:35.432Z,0.54
2023-03-29T05:11:35.411Z,0.53
2023-03-29T05:15:35.367Z,0.53
2023-03-29T05:19:35.298Z,0.53
2023-03-29T05:23:35.275Z,0.53
2023-03-29T05:27:35.263Z,0.53
2023-03-29T05:31:35.271Z,0.52
2023-03-29T05:35:35.212Z,0.53
2023-03-29T05:39:37.562Z,0.53
2023-03-29T05:43:35.121Z,0.53
2023-03-29T05:47:35.083Z,0.53
2023-03-29T05:51:35.200Z,0.53
2023-03-29T05:55:35.268Z,0.52
2023-03-29T05:59:34.965Z,0.52
2023-03-29T06:03:35.032Z,0.51
2023-03-29T06:07:35.375Z,0.52
2023-03-29T06:11:34.844Z,0.53
2023-03-29T06:15:34.811Z,0.52
2023-03-29T06:19:34.814Z,0.52
2023-03-29T06:23:34.756Z,0.52
2023-03-29T06:27:35.196Z,0.53
2023-03-29T06:31:34.678Z,0.53
2023-03-29T06:35:34.674Z,0.52
2023-03-29T06:39:34.588Z,0.52
2023-03-29T06:43:34.602Z,0.54
2023-03-29T06:47:34.775Z,0.52
2023-03-29T06:51:34.482Z,0.52
2023-03-29T06:55:34.461Z,0.53
2023-03-29T06:59:35.038Z,0.52
2023-03-29T07:03:34.745Z,0.54
2023-03-29T07:07:34.343Z,0.54
2023-03-29T07:11:34.302Z,0.51
2023-03-29T07:15:34.763Z,0.51
2023-03-29T07:19:34.214Z,0.52
2023-03-29T07:23:34.218Z,0.53
2023-03-29T07:27:34.124Z,0.53
2023-03-29T07:31:34.215Z,0.53
2023-03-29T07:35:34.245Z,0.53
2023-03-29T07:39:34.245Z,0.53
2023-03-29T07:43:34.006Z,0.57
2023-03-29T07:47:34.263Z,0.65
2023-03-29T07:51:34.231Z,0.76
2023-03-29T07:55:34.021Z,0.82
2023-03-29T07:59:34.756Z,1.01
2023-03-29T08:03:34.152Z,1.11
2023-03-29T08:07:34.120Z,1.21
2023-03-29T08:11:34.152Z,1.47
2023-03-29T08:15:34.154Z,1.74
2023-03-29T08:19:34.160Z,1.83
2023-03-29T08:23:34.196Z,2.05
2023-03-29T08:27:34.232Z,2.32
2023-03-29T08:31:34.338Z,2.37
2023-03-29T08:35:34.501Z,2.72
2023-03-29T08:39:34.844Z,0.52
2023-03-29T08:43:34.575Z,0.50
2023-03-29T08:47:34.871Z,0.52
2023-03-29T08:51:34.755Z,0.98
2023-03-29T08:55:34.856Z,1.13
2023-03-29T08:59:34.953Z,1.33
2023-03-29T09:03:35.060Z,1.50
2023-03-29T09:07:35.246Z,1.78
2023-03-29T09:11:35.357Z,1.86
2023-03-29T09:15:35.773Z,2.18
2023-03-29T09:19:35.531Z,2.51
2023-03-29T09:23:35.749Z,2.66
2023-03-29T09:27:35.519Z,2.93
2023-03-29T09:31:35.577Z,3.20
2023-03-29T10:08:50.533Z,0.50
2023-03-29T10:12:50.499Z,0.44
2023-03-29T10:16:50.607Z,0.50
2023-03-29T10:20:50.734Z,0.60
2023-03-29T10:24:50.793Z,0.50
2023-03-29T10:28:50.828Z,0.50
2023-03-29T10:32:51.353Z,0.51
2023-03-29T10:36:51.218Z,0.51
2023-03-29T10:40:51.255Z,0.51
2023-03-29T10:44:51.060Z,0.60
2023-03-29T10:48:51.198Z,0.54
2023-03-29T10:52:51.233Z,0.68
2023-03-29T10:56:52.478Z,0.73
2023-03-29T11:00:51.417Z,0.63
2023-03-29T11:04:51.375Z,0.59
2023-03-29T11:08:51.310Z,0.55
2023-03-29T11:12:51.462Z,0.54
2023-03-29T11:16:51.751Z,0.51
2023-03-29T11:20:51.207Z,0.54
2023-03-29T11:24:51.193Z,0.48
2023-03-29T11:28:51.299Z,0.55
2023-03-29T11:32:51.300Z,0.62
2023-03-29T11:36:51.295Z,0.59
2023-03-29T11:40:50.998Z,0.60
2023-03-29T11:44:52.243Z,0.59
2023-03-29T11:48:50.956Z,0.55
2023-03-29T11:52:51.032Z,0.63
2023-03-29T11:56:50.939Z,0.56
2023-03-29T12:00:50.859Z,0.61
2023-03-29T12:04:50.804Z,0.74
2023-03-29T12:09:50.894Z,0.50
2023-03-29T12:13:50.837Z,0.52
2023-03-29T12:17:50.877Z,0.56
2023-03-29T12:21:50.747Z,0.58
2023-03-29T12:25:50.699Z,0.63
2023-03-29T12:29:50.686Z,0.70
2023-03-29T12:33:50.650Z,0.77
2023-03-29T12:37:50.627Z,0.84
2023-03-29T12:41:50.596Z,0.91
2023-03-29T12:45:50.585Z,0.99
2023-03-29T12:49:50.538Z,1.09
2023-03-29T12:53:50.655Z,1.22
2023-03-29T12:57:50.816Z,1.34
2023-03-29T13:01:51.054Z,1.49
2023-03-29T13:05:51.168Z,1.65
2023-03-29T13:09:51.274Z,1.83
2023-03-29T13:13:51.406Z,1.90
2023-03-29T13:17:51.577Z,2.03
2023-03-29T13:21:51.745Z,2.13
2023-03-29T13:25:51.939Z,2.39
2023-03-29T13:29:52.210Z,2.71
2023-03-29T13:33:52.110Z,2.79
2023-03-29T13:37:52.085Z,2.84
2023-03-29T13:41:52.059Z,2.98
2023-03-29T13:45:52.011Z,3.18
2023-03-29T13:49:51.992Z,3.11
2023-03-29T13:53:51.945Z,3.13
2023-03-29T13:57:51.912Z,3.03
2023-03-29T14:01:51.920Z,2.91
2023-03-29T14:05:51.845Z,2.71
2023-03-29T14:09:51.806Z,2.62
2023-03-29T14:13:51.752Z,2.51
2023-03-29T14:17:51.747Z,2.43
2023-03-29T14:21:52.161Z,2.36
2023-03-29T14:25:51.663Z,2.24
2023-03-29T14:29:51.707Z,2.19
2023-03-29T14:33:51.821Z,2.42
2023-03-29T14:37:51.926Z,2.51
2023-03-29T14:41:51.971Z,2.53
2023-03-29T14:45:52.060Z,2.41
2023-03-29T14:49:51.985Z,2.34
2023-03-29T14:53:51.981Z,2.23
2023-03-29T14:57:51.965Z,2.14
2023-03-29T15:01:52.041Z,2.05
2023-03-29T15:05:52.064Z,1.93
2023-03-29T15:09:52.049Z,1.89
2023-03-29T15:13:52.090Z,1.79
2023-03-29T15:17:52.778Z,1.71
2023-03-29T15:21:52.190Z,1.67
2023-03-29T15:25:52.282Z,1.59
2023-03-29T15:29:52.373Z,1.51
2023-03-29T15:33:52.485Z,1.48
2023-03-29T15:37:52.490Z,1.43
2023-03-29T15:41:52.637Z,1.41
2023-03-29T15:45:52.677Z,1.34
2023-03-29T15:49:52.751Z,1.30
2023-03-29T15:53:52.834Z,1.29
2023-03-29T15:57:53.016Z,1.26
2023-03-29T16:01:53.066Z,1.21
2023-03-29T16:05:53.103Z,1.19
2023-03-29T16:09:53.215Z,1.15
2023-03-29T16:13:53.355Z,1.15
2023-03-29T16:17:53.658Z,1.12
2023-03-29T16:21:53.525Z,1.09
2023-03-29T16:25:53.646Z,1.09
2023-03-29T16:29:53.758Z,1.05
2023-03-29T16:33:53.886Z,1.04
2023-03-29T16:37:53.988Z,1.03
2023-03-29T16:41:54.115Z,0.99
2023-03-29T16:45:54.302Z,1.00
2023-03-29T16:49:54.360Z,0.99
2023-03-29T16:53:54.490Z,0.96
2023-03-29T16:57:54.645Z,0.94
2023-03-29T17:01:54.815Z,0.94
2023-03-29T17:05:54.971Z,0.92
2023-03-29T17:09:55.116Z,0.94
2023-03-29T17:13:55.223Z,0.91
2023-03-29T17:17:55.351Z,0.89
2023-03-29T17:21:55.459Z,0.87
2023-03-29T17:25:55.634Z,0.86
2023-03-29T17:29:55.807Z,0.86
2023-03-29T17:33:55.939Z,0.85
2023-03-29T17:37:56.144Z,0.83
2023-03-29T17:41:56.291Z,0.83
2023-03-29T17:45:56.463Z,0.82
2023-03-29T17:49:56.626Z,0.83
2023-03-29T17:53:56.776Z,0.81
2023-03-29T17:57:56.986Z,0.81
2023-03-29T18:01:57.187Z,0.79
2023-03-29T18:05:57.289Z,0.79
2023-03-29T18:09:57.456Z,0.77
2023-03-29T18:13:57.624Z,0.77
2023-03-29T18:17:57.889Z,0.76
2023-03-29T18:21:58.009Z,0.75
2023-03-29T18:25:58.170Z,0.73
2023-03-29T18:29:58.320Z,0.74
2023-03-29T18:33:58.531Z,0.74
2023-03-29T18:37:58.711Z,0.74
2023-03-29T18:41:58.882Z,0.72
2023-03-29T18:45:59.093Z,0.70
2023-03-29T18:49:59.227Z,0.71
2023-03-29T18:53:59.405Z,0.70
2023-03-29T18:57:59.610Z,0.70
2023-03-29T19:01:59.768Z,0.70
2023-03-29T19:05:59.965Z,0.69
2023-03-29T19:10:00.127Z,0.68
2023-03-29T19:14:00.298Z,0.67
2023-03-29T19:18:00.559Z,0.67
2023-03-29T19:22:00.928Z,0.68
2023-03-29T19:26:00.897Z,0.66
2023-03-29T19:30:01.081Z,0.66
2023-03-29T19:34:01.191Z,0.64
2023-03-29T19:38:01.390Z,0.64
2023-03-29T19:42:01.591Z,0.64
2023-03-29T19:46:02.151Z,0.66
2023-03-29T19:50:01.995Z,0.64
2023-03-29T19:54:02.183Z,0.63
2023-03-29T19:58:02.411Z,0.62
2023-03-29T20:02:02.676Z,0.62
2023-03-29T20:06:02.856Z,0.63
2023-03-29T20:10:03.030Z,0.61
2023-03-29T20:14:03.282Z,0.60
2023-03-29T20:18:03.578Z,0.60
2023-03-29T20:22:03.717Z,0.59
2023-03-29T20:26:03.909Z,0.60
2023-03-29T20:30:04.124Z,0.59
2023-03-29T20:34:04.370Z,0.60
2023-03-29T20:38:04.560Z,0.60
2023-03-29T20:42:04.809Z,0.59
2023-03-29T20:46:05.020Z,0.57
2023-03-29T20:50:05.217Z,0.58
2023-03-29T20:54:05.211Z,0.58
2023-03-29T20:58:05.159Z,0.57
2023-03-29T21:02:05.127Z,0.58
2023-03-29T21:06:05.060Z,0.57
2023-03-29T21:10:05.035Z,0.56
2023-03-29T21:14:04.978Z,0.56
2023-03-29T21:18:05.002Z,0.56
2023-03-29T21:22:04.924Z,0.56
2023-03-29T21:26:04.889Z,0.55
2023-03-29T21:30:04.843Z,0.56
2023-03-29T21:34:05.027Z,0.55
2023-03-29T21:38:04.995Z,0.55
2023-03-29T21:42:04.917Z,0.55
2023-03-29T21:46:04.890Z,0.55
2023-03-29T21:50:04.851Z,0.54
2023-03-29T21:54:04.812Z,0.54
2023-03-29T21:58:04.825Z,0.52
2023-03-29T22:02:04.761Z,0.54
2023-03-29T22:06:04.741Z,0.53
2023-03-29T22:10:04.682Z,0.52
2023-03-29T22:14:04.679Z,0.53
2023-03-29T22:18:05.035Z,0.52
2023-03-29T22:22:04.893Z,0.52
2023-03-29T22:26:04.880Z,0.52
2023-03-29T22:30:04.813Z,0.51
2023-03-29T22:34:04.793Z,0.52
2023-03-29T22:38:04.722Z,0.51
2023-03-29T22:42:04.651Z,0.50
2023-03-29T22:46:04.708Z,0.51
2023-03-29T22:50:04.627Z,0.51
2023-03-29T22:54:04.571Z,0.50
2023-03-29T22:58:04.601Z,0.51
2023-03-29T23:02:04.587Z,0.51
2023-03-29T23:06:04.566Z,0.52
2023-03-29T23:10:04.483Z,0.51
2023-03-29T23:14:04.472Z,0.50
2023-03-29T23:18:04.459Z,0.51
2023-03-29T23:22:04.387Z,0.51
2023-03-29T23:26:04.347Z,0.50
2023-03-29T23:30:04.350Z,0.51
2023-03-29T23:34:04.303Z,0.52
2023-03-29T23:38:04.308Z,0.51
2023-03-29T23:42:04.274Z,0.51
2023-03-29T23:46:04.228Z,0.51
2023-03-29T23:50:04.175Z,0.51
2023-03-29T23:54:04.129Z,0.51
2023-03-29T23:58:04.135Z,0.52
